Terminal Aerodrome Forecast
Issued by NWS Bismarck, ND

Home | Current Version | Previous Version | Graphics & Text | Print | Product List | Glossary On
Versions: 1 2 3 4 5 6 7 8 9 10 11 12 13 14 15 16 17 18 19 20
000
FTUS43 KBIS 040534
TAFBIS
TAF
KBIS 040534Z 0406/0506 13004KT 3SM FU VV035
     FM041600 16015KT P6SM FEW070
     FM050000 18015KT P6SM SCT060
     FM050300 18009KT P6SM SCT050 SCT100=

USA.gov is the U.S. government's official web portal to all federal, state and local government web resources and services.